sensor_id;sensor_type;location;lat;lon;timestamp;pressure;altitude;pressure_sealevel;temperature;humidity
34205;BME280;20471;49.680;20.074;2023-05-02T00:01:23;97268.80;;;5.81;60.22
34205;BME280;20471;49.680;20.074;2023-05-02T00:03:50;97267.67;;;5.71;60.34
34205;BME280;20471;49.680;20.074;2023-05-02T00:06:17;97265.19;;;5.59;60.42
34205;BME280;20471;49.680;20.074;2023-05-02T00:08:43;97268.17;;;5.52;60.79
34205;BME280;20471;49.680;20.074;2023-05-02T00:11:10;97264.65;;;5.49;60.87
34205;BME280;20471;49.680;20.074;2023-05-02T00:13:37;97262.98;;;5.41;60.96
34205;BME280;20471;49.680;20.074;2023-05-02T00:16:04;97261.23;;;5.32;61.05
34205;BME280;20471;49.680;20.074;2023-05-02T00:18:30;97263.09;;;5.28;61.40
34205;BME280;20471;49.680;20.074;2023-05-02T00:20:57;97262.71;;;5.29;61.49
34205;BME280;20471;49.680;20.074;2023-05-02T00:23:24;97261.71;;;5.24;61.46
34205;BME280;20471;49.680;20.074;2023-05-02T00:25:50;97259.73;;;5.21;61.61
34205;BME280;20471;49.680;20.074;2023-05-02T00:28:18;97258.01;;;5.23;61.75
34205;BME280;20471;49.680;20.074;2023-05-02T00:30:45;97265.98;;;5.27;61.69
34205;BME280;20471;49.680;20.074;2023-05-02T00:33:12;97266.02;;;5.27;61.64
34205;BME280;20471;49.680;20.074;2023-05-02T00:35:39;97264.63;;;5.17;61.68
34205;BME280;20471;49.680;20.074;2023-05-02T00:38:06;97267.05;;;5.16;61.89
34205;BME280;20471;49.680;20.074;2023-05-02T00:40:47;97269.56;;;5.15;62.11
34205;BME280;20471;49.680;20.074;2023-05-02T00:43:15;97272.30;;;5.06;62.13
34205;BME280;20471;49.680;20.074;2023-05-02T00:45:43;97272.84;;;5.03;62.29
34205;BME280;20471;49.680;20.074;2023-05-02T00:48:11;97269.95;;;5.05;62.37
34205;BME280;20471;49.680;20.074;2023-05-02T00:50:40;97269.85;;;5.08;62.46
34205;BME280;20471;49.680;20.074;2023-05-02T00:53:10;97273.30;;;5.10;62.62
34205;BME280;20471;49.680;20.074;2023-05-02T00:55:36;97271.94;;;5.10;62.67
34205;BME280;20471;49.680;20.074;2023-05-02T00:58:11;97269.79;;;5.04;62.67
34205;BME280;20471;49.680;20.074;2023-05-02T01:03:21;97273.01;;;4.97;63.02
34205;BME280;20471;49.680;20.074;2023-05-02T01:06:19;97273.89;;;5.01;63.01
34205;BME280;20471;49.680;20.074;2023-05-02T01:08:58;97273.70;;;5.01;62.94
34205;BME280;20471;49.680;20.074;2023-05-02T01:11:41;97279.76;;;4.95;62.97
34205;BME280;20471;49.680;20.074;2023-05-02T01:14:10;97282.05;;;4.86;63.07
34205;BME280;20471;49.680;20.074;2023-05-02T01:16:42;97283.20;;;4.82;63.09
34205;BME280;20471;49.680;20.074;2023-05-02T01:19:18;97278.80;;;4.83;63.17
34205;BME280;20471;49.680;20.074;2023-05-02T01:21:48;97274.80;;;4.85;63.21
34205;BME280;20471;49.680;20.074;2023-05-02T01:24:25;97274.97;;;4.85;63.24
34205;BME280;20471;49.680;20.074;2023-05-02T01:29:22;97272.80;;;4.83;63.32
34205;BME280;20471;49.680;20.074;2023-05-02T01:31:50;97270.64;;;4.82;63.42
34205;BME280;20471;49.680;20.074;2023-05-02T01:34:19;97267.14;;;4.80;63.39
34205;BME280;20471;49.680;20.074;2023-05-02T01:36:49;97267.83;;;4.77;63.47
34205;BME280;20471;49.680;20.074;2023-05-02T01:39:21;97268.27;;;4.75;63.49
34205;BME280;20471;49.680;20.074;2023-05-02T01:41:51;97266.12;;;4.71;63.60
34205;BME280;20471;49.680;20.074;2023-05-02T01:44:20;97266.63;;;4.68;63.60
34205;BME280;20471;49.680;20.074;2023-05-02T01:46:48;97265.96;;;4.65;63.63
34205;BME280;20471;49.680;20.074;2023-05-02T01:49:17;97269.88;;;4.61;63.68
34205;BME280;20471;49.680;20.074;2023-05-02T01:51:48;97268.80;;;4.60;63.77
34205;BME280;20471;49.680;20.074;2023-05-02T01:54:17;97270.27;;;4.60;63.77
34205;BME280;20471;49.680;20.074;2023-05-02T01:56:46;97272.84;;;4.59;63.88
34205;BME280;20471;49.680;20.074;2023-05-02T01:59:19;97270.98;;;4.58;63.99
34205;BME280;20471;49.680;20.074;2023-05-02T02:01:47;97275.35;;;4.56;63.92
34205;BME280;20471;49.680;20.074;2023-05-02T02:04:18;97276.71;;;4.54;64.06
34205;BME280;20471;49.680;20.074;2023-05-02T02:06:51;97279.15;;;4.53;64.12
34205;BME280;20471;49.680;20.074;2023-05-02T02:09:19;97280.45;;;4.52;64.15
34205;BME280;20471;49.680;20.074;2023-05-02T02:11:50;97284.83;;;4.53;64.22
34205;BME280;20471;49.680;20.074;2023-05-02T02:14:20;97282.56;;;4.51;64.23
34205;BME280;20471;49.680;20.074;2023-05-02T02:16:49;97287.66;;;4.47;64.27
34205;BME280;20471;49.680;20.074;2023-05-02T02:19:19;97284.63;;;4.42;64.32
34205;BME280;20471;49.680;20.074;2023-05-02T02:21:47;97285.60;;;4.40;64.39
34205;BME280;20471;49.680;20.074;2023-05-02T02:24:17;97284.88;;;4.37;64.49
34205;BME280;20471;49.680;20.074;2023-05-02T02:26:46;97287.20;;;4.28;64.63
34205;BME280;20471;49.680;20.074;2023-05-02T02:29:13;97287.48;;;4.17;64.72
34205;BME280;20471;49.680;20.074;2023-05-02T02:31:39;97288.44;;;4.12;64.72
34205;BME280;20471;49.680;20.074;2023-05-02T02:34:06;97287.70;;;4.13;65.02
34205;BME280;20471;49.680;20.074;2023-05-02T02:36:47;97285.56;;;4.13;65.15
34205;BME280;20471;49.680;20.074;2023-05-02T02:44:42;97290.40;;;4.02;65.40
34205;BME280;20471;49.680;20.074;2023-05-02T02:52:43;97276.08;;;3.96;65.55
34205;BME280;20471;49.680;20.074;2023-05-02T02:58:27;97280.21;;;3.93;65.87
34205;BME280;20471;49.680;20.074;2023-05-02T03:00:59;97280.45;;;3.91;65.89
34205;BME280;20471;49.680;20.074;2023-05-02T03:03:28;97282.42;;;3.93;65.96
34205;BME280;20471;49.680;20.074;2023-05-02T03:05:56;97287.02;;;3.96;65.78
34205;BME280;20471;49.680;20.074;2023-05-02T03:08:23;97287.31;;;3.97;65.77
34205;BME280;20471;49.680;20.074;2023-05-02T03:10:50;97287.95;;;3.94;65.82
34205;BME280;20471;49.680;20.074;2023-05-02T03:13:16;97292.77;;;3.93;65.87
34205;BME280;20471;49.680;20.074;2023-05-02T03:18:19;97290.36;;;3.92;65.99
34205;BME280;20471;49.680;20.074;2023-05-02T03:20:45;97292.34;;;3.90;66.07
34205;BME280;20471;49.680;20.074;2023-05-02T03:23:12;97293.58;;;3.89;66.18
34205;BME280;20471;49.680;20.074;2023-05-02T03:25:39;97289.94;;;3.85;66.26
34205;BME280;20471;49.680;20.074;2023-05-02T03:28:05;97288.27;;;3.81;66.32
34205;BME280;20471;49.680;20.074;2023-05-02T03:30:32;97294.48;;;3.84;66.27
34205;BME280;20471;49.680;20.074;2023-05-02T03:33:00;97299.08;;;3.86;66.35
34205;BME280;20471;49.680;20.074;2023-05-02T03:35:29;97296.52;;;3.86;66.38
34205;BME280;20471;49.680;20.074;2023-05-02T03:37:56;97306.05;;;3.90;66.55
34205;BME280;20471;49.680;20.074;2023-05-02T03:40:22;97310.02;;;3.91;66.79
34205;BME280;20471;49.680;20.074;2023-05-02T03:42:49;97307.31;;;3.85;66.99
34205;BME280;20471;49.680;20.074;2023-05-02T03:45:16;97304.63;;;3.79;67.19
34205;BME280;20471;49.680;20.074;2023-05-02T03:47:42;97294.96;;;3.74;67.29
34205;BME280;20471;49.680;20.074;2023-05-02T03:50:09;97302.19;;;3.73;67.27
34205;BME280;20471;49.680;20.074;2023-05-02T03:52:36;97306.65;;;3.74;67.28
34205;BME280;20471;49.680;20.074;2023-05-02T03:55:03;97313.01;;;3.79;67.30
34205;BME280;20471;49.680;20.074;2023-05-02T03:57:30;97313.96;;;3.85;67.36
34205;BME280;20471;49.680;20.074;2023-05-02T03:59:57;97307.80;;;3.87;67.39
34205;BME280;20471;49.680;20.074;2023-05-02T04:02:24;97309.52;;;3.91;67.34
34205;BME280;20471;49.680;20.074;2023-05-02T04:04:51;97307.08;;;3.94;67.28
34205;BME280;20471;49.680;20.074;2023-05-02T04:07:17;97301.45;;;3.97;67.40
34205;BME280;20471;49.680;20.074;2023-05-02T04:09:44;97304.58;;;4.02;67.37
34205;BME280;20471;49.680;20.074;2023-05-02T04:12:11;97312.41;;;4.07;67.38
34205;BME280;20471;49.680;20.074;2023-05-02T04:14:38;97318.40;;;4.11;67.62
34205;BME280;20471;49.680;20.074;2023-05-02T04:17:05;97318.95;;;4.12;67.65
34205;BME280;20471;49.680;20.074;2023-05-02T04:19:33;97321.02;;;4.15;67.68
34205;BME280;20471;49.680;20.074;2023-05-02T04:22:01;97327.20;;;4.19;67.69
34205;BME280;20471;49.680;20.074;2023-05-02T04:24:28;97319.95;;;4.23;67.62
34205;BME280;20471;49.680;20.074;2023-05-02T04:26:54;97318.66;;;4.30;67.64
34205;BME280;20471;49.680;20.074;2023-05-02T04:29:21;97316.31;;;4.36;67.73
34205;BME280;20471;49.680;20.074;2023-05-02T04:31:48;97312.02;;;4.43;67.68
34205;BME280;20471;49.680;20.074;2023-05-02T04:34:15;97314.35;;;4.49;67.78
34205;BME280;20471;49.680;20.074;2023-05-02T04:36:44;97322.97;;;4.56;67.77
34205;BME280;20471;49.680;20.074;2023-05-02T04:39:11;97325.77;;;4.62;67.63
34205;BME280;20471;49.680;20.074;2023-05-02T04:41:38;97326.33;;;4.70;67.47
34205;BME280;20471;49.680;20.074;2023-05-02T04:44:04;97327.18;;;4.78;67.58
34205;BME280;20471;49.680;20.074;2023-05-02T04:46:31;97325.08;;;4.87;67.63
34205;BME280;20471;49.680;20.074;2023-05-02T04:48:58;97316.36;;;4.94;67.75
34205;BME280;20471;49.680;20.074;2023-05-02T04:51:24;97317.79;;;5.02;67.50
34205;BME280;20471;49.680;20.074;2023-05-02T04:53:52;97325.35;;;5.09;67.35
34205;BME280;20471;49.680;20.074;2023-05-02T04:56:19;97325.48;;;5.18;67.12
34205;BME280;20471;49.680;20.074;2023-05-02T04:58:46;97323.80;;;5.28;67.21
34205;BME280;20471;49.680;20.074;2023-05-02T05:01:13;97318.82;;;5.38;67.35
34205;BME280;20471;49.680;20.074;2023-05-02T05:03:40;97323.91;;;5.50;67.05
34205;BME280;20471;49.680;20.074;2023-05-02T05:06:07;97321.41;;;5.60;66.93
34205;BME280;20471;49.680;20.074;2023-05-02T05:08:33;97315.44;;;5.71;66.94
34205;BME280;20471;49.680;20.074;2023-05-02T05:11:00;97313.80;;;5.83;66.93
34205;BME280;20471;49.680;20.074;2023-05-02T05:13:27;97310.34;;;5.96;66.49
34205;BME280;20471;49.680;20.074;2023-05-02T05:15:53;97310.48;;;6.09;66.43
34205;BME280;20471;49.680;20.074;2023-05-02T05:18:20;97308.67;;;6.22;66.14
34205;BME280;20471;49.680;20.074;2023-05-02T05:20:47;97306.75;;;6.36;65.88
34205;BME280;20471;49.680;20.074;2023-05-02T05:23:14;97311.33;;;6.49;65.73
34205;BME280;20471;49.680;20.074;2023-05-02T05:25:40;97312.58;;;6.64;65.62
34205;BME280;20471;49.680;20.074;2023-05-02T05:28:07;97316.22;;;6.79;65.47
34205;BME280;20471;49.680;20.074;2023-05-02T05:30:34;97314.98;;;6.95;65.54
34205;BME280;20471;49.680;20.074;2023-05-02T05:33:01;97317.44;;;7.09;65.22
34205;BME280;20471;49.680;20.074;2023-05-02T05:35:27;97314.76;;;7.23;65.27
34205;BME280;20471;49.680;20.074;2023-05-02T05:37:54;97309.99;;;7.35;65.30
34205;BME280;20471;49.680;20.074;2023-05-02T05:40:21;97304.98;;;7.48;65.36
34205;BME280;20471;49.680;20.074;2023-05-02T05:42:48;97307.32;;;7.62;65.51
34205;BME280;20471;49.680;20.074;2023-05-02T05:45:14;97310.71;;;7.73;65.28
34205;BME280;20471;49.680;20.074;2023-05-02T05:47:42;97315.34;;;7.84;64.98
34205;BME280;20471;49.680;20.074;2023-05-02T05:50:09;97312.63;;;7.92;64.94
34205;BME280;20471;49.680;20.074;2023-05-02T05:52:36;97319.64;;;8.03;65.14
34205;BME280;20471;49.680;20.074;2023-05-02T05:55:03;97325.69;;;8.11;65.16
34205;BME280;20471;49.680;20.074;2023-05-02T05:57:30;97322.56;;;8.20;64.98
34205;BME280;20471;49.680;20.074;2023-05-02T05:59:57;97322.80;;;8.30;65.08
34205;BME280;20471;49.680;20.074;2023-05-02T06:02:24;97327.10;;;8.38;64.93
34205;BME280;20471;49.680;20.074;2023-05-02T06:04:50;97327.96;;;8.46;64.89
34205;BME280;20471;49.680;20.074;2023-05-02T06:07:17;97332.65;;;8.52;64.78
34205;BME280;20471;49.680;20.074;2023-05-02T06:09:44;97333.45;;;8.58;64.32
34205;BME280;20471;49.680;20.074;2023-05-02T06:12:11;97328.92;;;8.62;64.04
34205;BME280;20471;49.680;20.074;2023-05-02T06:14:37;97339.50;;;8.67;63.68
34205;BME280;20471;49.680;20.074;2023-05-02T06:17:04;97344.52;;;8.71;63.36
34205;BME280;20471;49.680;20.074;2023-05-02T06:19:31;97341.64;;;8.76;63.23
34205;BME280;20471;49.680;20.074;2023-05-02T06:21:58;97339.42;;;8.82;63.11
34205;BME280;20471;49.680;20.074;2023-05-02T06:24:24;97342.80;;;8.86;63.10
34205;BME280;20471;49.680;20.074;2023-05-02T06:26:51;97355.66;;;8.95;63.73
34205;BME280;20471;49.680;20.074;2023-05-02T06:29:18;97357.64;;;9.01;64.04
34205;BME280;20471;49.680;20.074;2023-05-02T06:31:44;97355.50;;;9.10;63.95
34205;BME280;20471;49.680;20.074;2023-05-02T06:34:11;97356.14;;;9.18;63.85
34205;BME280;20471;49.680;20.074;2023-05-02T06:36:38;97358.95;;;9.31;63.86
34205;BME280;20471;49.680;20.074;2023-05-02T06:39:04;97357.09;;;9.44;63.99
34205;BME280;20471;49.680;20.074;2023-05-02T06:41:31;97359.06;;;9.58;63.61
34205;BME280;20471;49.680;20.074;2023-05-02T06:43:58;97357.63;;;9.71;62.82
34205;BME280;20471;49.680;20.074;2023-05-02T06:46:28;97350.33;;;9.85;62.56
34205;BME280;20471;49.680;20.074;2023-05-02T06:48:55;97349.60;;;10.01;62.14
34205;BME280;20471;49.680;20.074;2023-05-02T06:51:21;97348.52;;;10.18;61.67
34205;BME280;20471;49.680;20.074;2023-05-02T06:53:48;97350.67;;;10.32;61.15
34205;BME280;20471;49.680;20.074;2023-05-02T06:56:17;97354.07;;;10.47;60.50
34205;BME280;20471;49.680;20.074;2023-05-02T06:58:44;97358.09;;;10.65;60.19
34205;BME280;20471;49.680;20.074;2023-05-02T07:01:11;97359.83;;;10.80;59.82
34205;BME280;20471;49.680;20.074;2023-05-02T07:03:37;97352.10;;;10.97;59.79
34205;BME280;20471;49.680;20.074;2023-05-02T07:06:04;97352.34;;;11.17;59.17
34205;BME280;20471;49.680;20.074;2023-05-02T07:08:31;97349.45;;;11.33;58.68
34205;BME280;20471;49.680;20.074;2023-05-02T07:10:58;97347.21;;;11.50;58.37
34205;BME280;20471;49.680;20.074;2023-05-02T07:13:24;97344.50;;;11.65;57.75
34205;BME280;20471;49.680;20.074;2023-05-02T07:15:52;97344.66;;;11.79;57.28
34205;BME280;20471;49.680;20.074;2023-05-02T07:18:19;97340.73;;;11.95;56.97
34205;BME280;20471;49.680;20.074;2023-05-02T07:20:46;97339.93;;;12.12;56.71
34205;BME280;20471;49.680;20.074;2023-05-02T07:23:12;97342.73;;;12.31;56.46
34205;BME280;20471;49.680;20.074;2023-05-02T07:25:39;97339.31;;;12.51;56.31
34205;BME280;20471;49.680;20.074;2023-05-02T07:28:06;97337.85;;;12.74;55.69
34205;BME280;20471;49.680;20.074;2023-05-02T07:30:33;97338.11;;;12.96;55.12
34205;BME280;20471;49.680;20.074;2023-05-02T07:32:59;97338.98;;;13.18;55.45
34205;BME280;20471;49.680;20.074;2023-05-02T07:35:26;97340.30;;;13.37;55.42
34205;BME280;20471;49.680;20.074;2023-05-02T07:37:53;97340.67;;;13.51;55.25
34205;BME280;20471;49.680;20.074;2023-05-02T07:40:20;97343.98;;;13.66;55.25
34205;BME280;20471;49.680;20.074;2023-05-02T07:42:47;97344.41;;;13.80;54.94
34205;BME280;20471;49.680;20.074;2023-05-02T07:45:15;97343.94;;;13.93;53.91
34205;BME280;20471;49.680;20.074;2023-05-02T07:47:42;97339.76;;;14.10;53.32
34205;BME280;20471;49.680;20.074;2023-05-02T07:50:09;97338.64;;;14.24;53.17
34205;BME280;20471;49.680;20.074;2023-05-02T07:52:36;97337.73;;;14.38;52.86
34205;BME280;20471;49.680;20.074;2023-05-02T07:55:03;97335.96;;;14.60;52.72
34205;BME280;20471;49.680;20.074;2023-05-02T07:57:30;97333.52;;;15.02;52.80
34205;BME280;20471;49.680;20.074;2023-05-02T07:59:57;97332.88;;;15.50;52.84
34205;BME280;20471;49.680;20.074;2023-05-02T08:02:24;97330.95;;;16.05;52.20
34205;BME280;20471;49.680;20.074;2023-05-02T08:04:51;97328.84;;;16.56;51.53
34205;BME280;20471;49.680;20.074;2023-05-02T08:07:18;97323.67;;;17.01;50.61
34205;BME280;20471;49.680;20.074;2023-05-02T08:09:46;97323.58;;;17.51;50.47
34205;BME280;20471;49.680;20.074;2023-05-02T08:12:13;97321.49;;;18.06;50.28
34205;BME280;20471;49.680;20.074;2023-05-02T08:14:39;97322.04;;;18.58;48.75
34205;BME280;20471;49.680;20.074;2023-05-02T08:17:06;97318.46;;;18.93;47.83
34205;BME280;20471;49.680;20.074;2023-05-02T08:19:33;97316.27;;;19.34;47.40
34205;BME280;20471;49.680;20.074;2023-05-02T08:21:59;97313.11;;;19.85;46.98
34205;BME280;20471;49.680;20.074;2023-05-02T08:24:26;97311.02;;;20.38;46.19
34205;BME280;20471;49.680;20.074;2023-05-02T08:26:53;97307.80;;;20.85;45.28
34205;BME280;20471;49.680;20.074;2023-05-02T08:29:20;97305.86;;;21.24;44.87
34205;BME280;20471;49.680;20.074;2023-05-02T08:31:46;97300.77;;;21.53;43.99
34205;BME280;20471;49.680;20.074;2023-05-02T08:34:13;97298.98;;;21.92;43.44
34205;BME280;20471;49.680;20.074;2023-05-02T08:36:40;97297.70;;;22.27;43.10
34205;BME280;20471;49.680;20.074;2023-05-02T08:39:07;97290.52;;;22.57;42.10
34205;BME280;20471;49.680;20.074;2023-05-02T08:41:34;97289.98;;;22.85;41.60
34205;BME280;20471;49.680;20.074;2023-05-02T08:44:02;97287.59;;;23.02;41.02
34205;BME280;20471;49.680;20.074;2023-05-02T08:46:29;97293.13;;;23.16;40.53
34205;BME280;20471;49.680;20.074;2023-05-02T08:48:57;97285.78;;;23.38;40.00
34205;BME280;20471;49.680;20.074;2023-05-02T08:51:26;97286.63;;;23.62;39.61
34205;BME280;20471;49.680;20.074;2023-05-02T08:53:53;97286.21;;;23.86;38.96
34205;BME280;20471;49.680;20.074;2023-05-02T08:56:20;97287.67;;;24.05;38.51
34205;BME280;20471;49.680;20.074;2023-05-02T08:58:47;97282.96;;;24.20;38.84
34205;BME280;20471;49.680;20.074;2023-05-02T09:01:16;97274.70;;;24.49;38.59
34205;BME280;20471;49.680;20.074;2023-05-02T09:03:44;97276.09;;;24.71;38.27
34205;BME280;20471;49.680;20.074;2023-05-02T09:08:39;97267.39;;;24.97;37.25
34205;BME280;20471;49.680;20.074;2023-05-02T13:12:57;97253.10;;;25.89;31.96
34205;BME280;20471;49.680;20.074;2023-05-02T13:15:27;97250.63;;;25.37;32.29
34205;BME280;20471;49.680;20.074;2023-05-02T13:17:55;97252.32;;;24.58;33.07
34205;BME280;20471;49.680;20.074;2023-05-02T13:20:23;97264.35;;;23.31;33.58
34205;BME280;20471;49.680;20.074;2023-05-02T13:22:51;97271.83;;;22.09;34.54
34205;BME280;20471;49.680;20.074;2023-05-02T13:25:19;97281.23;;;21.28;35.51
34205;BME280;20471;49.680;20.074;2023-05-02T13:27:48;97290.55;;;20.74;36.63
34205;BME280;20471;49.680;20.074;2023-05-02T13:30:16;97292.90;;;20.65;37.07
34205;BME280;20471;49.680;20.074;2023-05-02T13:32:44;97298.15;;;20.67;37.24
34205;BME280;20471;49.680;20.074;2023-05-02T13:35:12;97298.65;;;20.60;37.56
34205;BME280;20471;49.680;20.074;2023-05-02T13:37:41;97299.52;;;20.22;38.15
34205;BME280;20471;49.680;20.074;2023-05-02T13:40:10;97305.48;;;19.93;39.15
34205;BME280;20471;49.680;20.074;2023-05-02T13:42:38;97304.71;;;19.76;39.53
34205;BME280;20471;49.680;20.074;2023-05-02T13:45:07;97307.98;;;19.42;40.68
34205;BME280;20471;49.680;20.074;2023-05-02T13:47:35;97314.13;;;19.04;41.55
34205;BME280;20471;49.680;20.074;2023-05-02T13:50:04;97321.60;;;18.59;42.72
34205;BME280;20471;49.680;20.074;2023-05-02T13:52:32;97327.64;;;18.39;43.23
34205;BME280;20471;49.680;20.074;2023-05-02T13:55:00;97331.47;;;18.24;43.45
34205;BME280;20471;49.680;20.074;2023-05-02T13:57:28;97340.51;;;18.19;43.74
34205;BME280;20471;49.680;20.074;2023-05-02T13:59:57;97357.20;;;18.23;44.02
34205;BME280;20471;49.680;20.074;2023-05-02T14:02:25;97366.83;;;18.24;45.11
34205;BME280;20471;49.680;20.074;2023-05-02T14:04:54;97366.52;;;18.13;46.18
34205;BME280;20471;49.680;20.074;2023-05-02T14:07:22;97348.10;;;18.06;46.88
34205;BME280;20471;49.680;20.074;2023-05-02T14:09:50;97333.31;;;17.83;48.03
34205;BME280;20471;49.680;20.074;2023-05-02T14:12:18;97318.61;;;17.55;49.72
34205;BME280;20471;49.680;20.074;2023-05-02T14:14:46;97307.47;;;17.06;50.66
34205;BME280;20471;49.680;20.074;2023-05-02T14:17:14;97306.82;;;16.52;51.63
34205;BME280;20471;49.680;20.074;2023-05-02T14:19:45;97309.92;;;16.39;52.09
34205;BME280;20471;49.680;20.074;2023-05-02T14:22:13;97311.02;;;16.45;52.67
34205;BME280;20471;49.680;20.074;2023-05-02T14:24:41;97322.70;;;16.47;53.18
34205;BME280;20471;49.680;20.074;2023-05-02T14:27:09;97329.48;;;16.41;53.70
34205;BME280;20471;49.680;20.074;2023-05-02T14:29:45;97341.70;;;16.30;54.75
34205;BME280;20471;49.680;20.074;2023-05-02T14:32:13;97351.92;;;16.33;55.17
34205;BME280;20471;49.680;20.074;2023-05-02T14:34:41;97350.52;;;16.34;54.93
34205;BME280;20471;49.680;20.074;2023-05-02T14:37:09;97343.13;;;16.31;55.63
34205;BME280;20471;49.680;20.074;2023-05-02T14:39:37;97343.52;;;16.35;56.47
34205;BME280;20471;49.680;20.074;2023-05-02T14:42:08;97343.27;;;16.43;56.85
34205;BME280;20471;49.680;20.074;2023-05-02T14:44:36;97335.86;;;16.45;57.66
34205;BME280;20471;49.680;20.074;2023-05-02T14:47:04;97331.07;;;16.51;57.83
34205;BME280;20471;49.680;20.074;2023-05-02T14:49:32;97341.99;;;16.57;57.77
34205;BME280;20471;49.680;20.074;2023-05-02T14:52:00;97351.92;;;16.54;57.50
34205;BME280;20471;49.680;20.074;2023-05-02T14:54:29;97354.48;;;16.53;57.81
34205;BME280;20471;49.680;20.074;2023-05-02T14:56:57;97358.57;;;16.55;57.89
34205;BME280;20471;49.680;20.074;2023-05-02T14:59:28;97369.49;;;16.57;58.03
34205;BME280;20471;49.680;20.074;2023-05-02T15:01:56;97372.55;;;16.49;58.67
34205;BME280;20471;49.680;20.074;2023-05-02T15:04:24;97373.02;;;16.40;58.95
34205;BME280;20471;49.680;20.074;2023-05-02T15:06:52;97375.57;;;16.37;59.40
34205;BME280;20471;49.680;20.074;2023-05-02T15:09:22;97380.91;;;16.24;59.51
34205;BME280;20471;49.680;20.074;2023-05-02T15:11:52;97380.92;;;16.14;59.82
34205;BME280;20471;49.680;20.074;2023-05-02T15:14:20;97380.67;;;16.08;60.78
34205;BME280;20471;49.680;20.074;2023-05-02T15:16:49;97373.17;;;16.10;60.78
34205;BME280;20471;49.680;20.074;2023-05-02T15:19:17;97372.25;;;16.12;61.22
34205;BME280;20471;49.680;20.074;2023-05-02T15:21:45;97377.48;;;16.16;61.39
34205;BME280;20471;49.680;20.074;2023-05-02T15:24:14;97381.29;;;16.23;61.40
34205;BME280;20471;49.680;20.074;2023-05-02T15:26:43;97389.52;;;16.26;61.05
34205;BME280;20471;49.680;20.074;2023-05-02T15:29:11;97389.52;;;16.26;61.12
34205;BME280;20471;49.680;20.074;2023-05-02T15:31:39;97387.88;;;16.22;61.35
34205;BME280;20471;49.680;20.074;2023-05-02T15:34:07;97395.04;;;16.17;61.14
34205;BME280;20471;49.680;20.074;2023-05-02T15:36:35;97400.26;;;16.13;61.01
34205;BME280;20471;49.680;20.074;2023-05-02T15:39:04;97405.90;;;16.10;61.22
34205;BME280;20471;49.680;20.074;2023-05-02T15:41:32;97419.33;;;16.04;61.44
34205;BME280;20471;49.680;20.074;2023-05-02T15:44:00;97429.73;;;15.97;61.35
34205;BME280;20471;49.680;20.074;2023-05-02T15:46:28;97441.04;;;15.91;61.24
34205;BME280;20471;49.680;20.074;2023-05-02T15:48:56;97446.15;;;15.77;61.50
34205;BME280;20471;49.680;20.074;2023-05-02T15:51:25;97462.44;;;15.49;62.01
34205;BME280;20471;49.680;20.074;2023-05-02T15:53:53;97467.55;;;15.36;62.50
34205;BME280;20471;49.680;20.074;2023-05-02T15:56:21;97477.64;;;15.29;62.55
34205;BME280;20471;49.680;20.074;2023-05-02T15:58:49;97483.58;;;15.22;62.55
34205;BME280;20471;49.680;20.074;2023-05-02T16:01:17;97475.71;;;15.13;62.88
34205;BME280;20471;49.680;20.074;2023-05-02T16:03:46;97471.61;;;15.07;63.32
34205;BME280;20471;49.680;20.074;2023-05-02T16:06:14;97459.15;;;15.04;63.71
34205;BME280;20471;49.680;20.074;2023-05-02T16:08:43;97445.23;;;15.02;63.82
34205;BME280;20471;49.680;20.074;2023-05-02T16:11:11;97447.81;;;14.96;63.76
34205;BME280;20471;49.680;20.074;2023-05-02T16:13:39;97457.14;;;14.82;63.73
34205;BME280;20471;49.680;20.074;2023-05-02T16:16:07;97469.42;;;14.77;63.82
34205;BME280;20471;49.680;20.074;2023-05-02T16:18:35;97466.77;;;14.76;63.84
34205;BME280;20471;49.680;20.074;2023-05-02T16:21:03;97468.61;;;14.66;64.16
34205;BME280;20471;49.680;20.074;2023-05-02T16:23:32;97483.23;;;14.62;64.29
34205;BME280;20471;49.680;20.074;2023-05-02T16:26:20;97491.52;;;14.61;64.38
34205;BME280;20471;49.680;20.074;2023-05-02T16:28:48;97496.41;;;14.61;64.77
34205;BME280;20471;49.680;20.074;2023-05-02T16:31:16;97496.35;;;14.61;64.91
34205;BME280;20471;49.680;20.074;2023-05-02T16:33:44;97498.14;;;14.58;65.06
34205;BME280;20471;49.680;20.074;2023-05-02T16:36:13;97501.80;;;14.57;65.08
34205;BME280;20471;49.680;20.074;2023-05-02T16:38:42;97499.36;;;14.58;65.10
34205;BME280;20471;49.680;20.074;2023-05-02T16:41:37;97495.83;;;14.57;65.01
34205;BME280;20471;49.680;20.074;2023-05-02T16:44:06;97496.48;;;14.53;65.24
34205;BME280;20471;49.680;20.074;2023-05-02T16:46:37;97494.76;;;14.50;65.32
34205;BME280;20471;49.680;20.074;2023-05-02T16:49:07;97498.92;;;14.49;65.46
34205;BME280;20471;49.680;20.074;2023-05-02T16:51:39;97497.51;;;14.42;65.83
34205;BME280;20471;49.680;20.074;2023-05-02T16:54:08;97496.58;;;14.32;66.32
34205;BME280;20471;49.680;20.074;2023-05-02T16:56:38;97501.58;;;14.32;66.75
34205;BME280;20471;49.680;20.074;2023-05-02T16:59:07;97507.57;;;14.35;66.94
34205;BME280;20471;49.680;20.074;2023-05-02T17:01:35;97511.88;;;14.34;67.18
34205;BME280;20471;49.680;20.074;2023-05-02T17:04:05;97515.13;;;14.35;67.32
34205;BME280;20471;49.680;20.074;2023-05-02T17:06:41;97520.95;;;14.36;67.29
34205;BME280;20471;49.680;20.074;2023-05-02T17:09:11;97520.05;;;14.36;67.28
34205;BME280;20471;49.680;20.074;2023-05-02T17:11:39;97521.47;;;14.37;67.31
34205;BME280;20471;49.680;20.074;2023-05-02T17:14:19;97523.69;;;14.35;67.60
34205;BME280;20471;49.680;20.074;2023-05-02T17:16:48;97521.39;;;14.24;67.83
34205;BME280;20471;49.680;20.074;2023-05-02T17:19:16;97526.13;;;14.14;68.03
34205;BME280;20471;49.680;20.074;2023-05-02T17:21:48;97533.15;;;14.13;68.07
34205;BME280;20471;49.680;20.074;2023-05-02T17:24:16;97535.70;;;14.13;68.18
34205;BME280;20471;49.680;20.074;2023-05-02T17:26:44;97538.49;;;14.07;68.48